Time;durP1;ratioP1;P1;durP2;ratioP2;P2;SDS_P1;SDS_P2;PMS_P1;PMS_P2;Temp;Humidity;BMP_temperature;BMP_pressure;BME280_temperature;BME280_humidity;BME280_pressure;Samples;Min_cycle;Max_cycle;Signal;HPM_P1;HPM_P2
2022/06/14 00:00:53;;;;;;;;;10.00;8.00;;;;;;;;4971851;28;45442;-66
2022/06/14 00:03:19;;;;;;;;;6.75;6.75;;;;;;;;4975439;28;45497;-66
2022/06/14 00:05:44;;;;;;;;;7.25;7.25;;;;;;;;4976991;28;45842;-65
2022/06/14 00:08:10;;;;;;;;;7.00;7.00;;;;;;;;4971946;28;45963;-67
2022/06/14 00:10:36;;;;;;;;;9.25;9.25;;;;;;;;4986953;28;45866;-66
2022/06/14 00:13:01;;;;;;;;;8.00;8.00;;;;;;;;4978939;28;45363;-66
2022/06/14 00:15:26;;;;;;;;;9.25;9.25;;;;;;;;4975300;28;45388;-66
2022/06/14 00:17:52;;;;;;;;;6.25;6.25;;;;;;;;4976060;28;47739;-66
2022/06/14 00:20:17;;;;;;;;;8.25;8.25;;;;;;;;4977829;28;45696;-64
2022/06/14 00:22:42;;;;;;;;;8.25;6.00;;;;;;;;5002571;28;45413;-65
2022/06/14 00:25:08;;;;;;;;;8.75;8.00;;;;;;;;4980607;28;45513;-65
2022/06/14 00:27:34;;;;;;;;;4.75;4.75;;;;;;;;4976852;28;46302;-65
2022/06/14 00:29:59;;;;;;;;;7.75;7.75;;;;;;;;4976820;28;45507;-67
2022/06/14 00:32:24;;;;;;;;;10.50;6.00;;;;;;;;4977105;28;45722;-66
2022/06/14 00:34:52;;;;;;;;;0.75;0.00;;;;;;;;4970672;28;45364;-66
2022/06/14 00:37:18;;;;;;;;;7.75;6.00;;;;;;;;4982050;28;46528;-66
2022/06/14 00:39:44;;;;;;;;;8.00;7.50;;;;;;;;4987909;28;45442;-65
2022/06/14 00:42:16;;;;;;;;;5.25;5.25;;;;;;;;4968037;28;45477;-65
2022/06/14 00:44:41;;;;;;;;;8.00;8.00;;;;;;;;4968592;28;45324;-67
2022/06/14 00:47:09;;;;;;;;;5.75;5.75;;;;;;;;4995001;28;48587;-66
2022/06/14 00:49:38;;;;;;;;;8.25;7.00;;;;;;;;4989212;28;45771;-66
2022/06/14 00:52:15;;;;;;;;;6.75;6.75;;;;;;;;4972072;28;45497;-67
2022/06/14 00:54:42;;;;;;;;;10.00;9.00;;;;;;;;4991784;28;45419;-66
2022/06/14 00:57:11;;;;;;;;;5.00;5.00;;;;;;;;4992882;28;48163;-68
2022/06/14 00:59:46;;;;;;;;;8.75;8.75;;;;;;;;4978395;28;45535;-69
2022/06/14 01:02:18;;;;;;;;;8.25;7.75;;;;;;;;4992153;28;45580;-66
2022/06/14 01:04:44;;;;;;;;;7.50;7.50;;;;;;;;4993004;28;45624;-66
2022/06/14 01:07:32;;;;;;;;;7.75;7.00;;;;;;;;4968701;28;45728;-66
2022/06/14 01:10:21;;;;;;;;;8.50;8.50;;;;;;;;4979179;28;45362;-65
2022/06/14 01:12:48;;;;;;;;;7.00;7.00;;;;;;;;4960989;28;45603;-66
2022/06/14 01:15:18;;;;;;;;;6.75;5.50;;;;;;;;4993127;28;45671;-66
2022/06/14 01:17:45;;;;;;;;;8.00;8.00;;;;;;;;4974527;28;47645;-65
2022/06/14 01:20:11;;;;;;;;;6.00;4.75;;;;;;;;4973703;28;45549;-65
2022/06/14 01:22:37;;;;;;;;;4.25;4.25;;;;;;;;4974923;28;45501;-65
2022/06/14 01:25:03;;;;;;;;;5.00;5.00;;;;;;;;4967156;28;45455;-65
2022/06/14 01:27:30;;;;;;;;;5.00;5.00;;;;;;;;4977024;28;46935;-66
2022/06/14 01:29:59;;;;;;;;;6.75;6.75;;;;;;;;5009285;28;46228;-65
2022/06/14 01:32:26;;;;;;;;;6.00;6.00;;;;;;;;4993422;28;46108;-65
2022/06/14 01:34:53;;;;;;;;;6.50;6.50;;;;;;;;4977972;28;45463;-65
2022/06/14 01:37:20;;;;;;;;;6.00;4.75;;;;;;;;4986492;28;46263;-64
2022/06/14 01:39:45;;;;;;;;;6.25;6.25;;;;;;;;4980959;28;45395;-64
2022/06/14 01:42:13;;;;;;;;;4.50;4.25;;;;;;;;5009640;28;45426;-65
2022/06/14 01:44:54;;;;;;;;;5.00;5.00;;;;;;;;5013657;28;45445;-65
2022/06/14 01:47:22;;;;;;;;;6.25;4.75;;;;;;;;4983045;28;46759;-66
2022/06/14 01:53:04;;;;;;;;;4.00;3.75;;;;;;;;4982494;28;45437;-65
2022/06/14 01:55:48;;;;;;;;;4.25;4.25;;;;;;;;4982325;28;45422;-64
2022/06/14 01:58:13;;;;;;;;;4.50;4.50;;;;;;;;4982009;28;46082;-64
2022/06/14 02:00:44;;;;;;;;;4.00;4.00;;;;;;;;5009781;28;45531;-65
2022/06/14 02:06:12;;;;;;;;;6.25;5.00;;;;;;;;4976163;28;45387;-64
2022/06/14 02:08:44;;;;;;;;;4.75;4.75;;;;;;;;4990136;28;48545;-64
2022/06/14 02:11:15;;;;;;;;;5.75;5.75;;;;;;;;4990175;28;45628;-65
2022/06/14 02:14:02;;;;;;;;;6.00;6.00;;;;;;;;4973229;28;46004;-64
2022/06/14 02:16:32;;;;;;;;;7.00;5.25;;;;;;;;4973103;28;45560;-66
2022/06/14 02:19:06;;;;;;;;;4.25;4.25;;;;;;;;4974352;28;45480;-65
2022/06/14 02:21:45;;;;;;;;;4.00;4.00;;;;;;;;5006025;28;46888;-65
2022/06/14 02:24:17;;;;;;;;;4.25;4.25;;;;;;;;4959948;28;49341;-65
2022/06/14 02:26:54;;;;;;;;;7.50;7.50;;;;;;;;4972965;28;45470;-65
2022/06/14 02:29:19;;;;;;;;;6.50;6.50;;;;;;;;4974803;28;45719;-64
2022/06/14 02:32:04;;;;;;;;;8.00;8.00;;;;;;;;5005703;28;46651;-64
2022/06/14 02:34:36;;;;;;;;;6.50;6.00;;;;;;;;4974099;28;46031;-65
2022/06/14 02:37:24;;;;;;;;;4.75;4.50;;;;;;;;4974421;28;45533;-65
2022/06/14 02:39:56;;;;;;;;;6.75;5.50;;;;;;;;4975070;28;47558;-65
2022/06/14 02:42:25;;;;;;;;;5.50;5.00;;;;;;;;4974663;28;45606;-64
2022/06/14 02:44:56;;;;;;;;;5.00;5.00;;;;;;;;4973429;28;45367;-66
2022/06/14 02:47:32;;;;;;;;;7.75;5.75;;;;;;;;4975027;28;45515;-65
2022/06/14 02:50:04;;;;;;;;;4.75;4.75;;;;;;;;4973899;28;45403;-64
2022/06/14 02:52:32;;;;;;;;;10.25;7.50;;;;;;;;4973962;28;45512;-64
2022/06/14 02:55:04;;;;;;;;;6.50;6.50;;;;;;;;4972567;28;47787;-65
2022/06/14 02:57:34;;;;;;;;;8.25;8.25;;;;;;;;4974355;28;45379;-64
2022/06/14 03:00:11;;;;;;;;;9.25;6.00;;;;;;;;4988835;28;48664;-65
2022/06/14 03:02:43;;;;;;;;;7.00;6.75;;;;;;;;4974497;28;45474;-64
2022/06/14 03:05:13;;;;;;;;;6.00;6.00;;;;;;;;4970846;28;46063;-64
2022/06/14 03:07:46;;;;;;;;;5.75;4.75;;;;;;;;4978847;28;45606;-63
2022/06/14 03:10:12;;;;;;;;;6.00;6.00;;;;;;;;4977389;28;45412;-64
2022/06/14 03:12:45;;;;;;;;;7.00;7.00;;;;;;;;4977708;28;45542;-64
2022/06/14 03:15:22;;;;;;;;;6.00;5.75;;;;;;;;4954841;28;45547;-64
2022/06/14 03:18:14;;;;;;;;;6.75;6.50;;;;;;;;4975406;28;45424;-64
2022/06/14 03:20:51;;;;;;;;;8.00;8.00;;;;;;;;4929234;28;47711;-64
2022/06/14 03:23:35;;;;;;;;;7.00;4.25;;;;;;;;4939288;28;45342;-64
2022/06/14 03:26:04;;;;;;;;;6.25;6.25;;;;;;;;4947262;28;45584;-65
2022/06/14 03:28:48;;;;;;;;;5.25;5.25;;;;;;;;4946706;28;45537;-64
2022/06/14 03:31:18;;;;;;;;;9.50;7.50;;;;;;;;4946561;28;48826;-64
2022/06/14 03:33:55;;;;;;;;;7.50;5.25;;;;;;;;4946503;28;45531;-65
2022/06/14 03:36:21;;;;;;;;;5.50;4.75;;;;;;;;4949636;28;45487;-66
2022/06/14 03:38:49;;;;;;;;;7.00;5.25;;;;;;;;4965536;28;45508;-64
2022/06/14 03:41:16;;;;;;;;;3.50;3.50;;;;;;;;4922700;28;47821;-65
2022/06/14 03:43:42;;;;;;;;;3.25;3.25;;;;;;;;4944574;28;45689;-62
2022/06/14 03:46:15;;;;;;;;;4.50;4.50;;;;;;;;4954424;28;45561;-64
2022/06/14 03:48:44;;;;;;;;;6.50;4.00;;;;;;;;4950376;28;46208;-64
2022/06/14 03:51:13;;;;;;;;;4.00;4.00;;;;;;;;4950099;28;46684;-65
2022/06/14 03:53:41;;;;;;;;;4.25;4.25;;;;;;;;4951618;28;45472;-66
2022/06/14 03:56:25;;;;;;;;;5.00;5.00;;;;;;;;4935552;28;45788;-65
2022/06/14 03:59:20;;;;;;;;;5.00;5.00;;;;;;;;4969584;28;45827;-65
2022/06/14 04:01:50;;;;;;;;;2.50;2.00;;;;;;;;4976987;28;45711;-65
2022/06/14 04:04:42;;;;;;;;;6.00;5.00;;;;;;;;4975264;28;45539;-65
2022/06/14 04:07:13;;;;;;;;;3.50;3.50;;;;;;;;4975351;28;45498;-63
2022/06/14 04:09:44;;;;;;;;;5.50;5.50;;;;;;;;4970853;28;45715;-64
2022/06/14 04:12:24;;;;;;;;;7.50;6.00;;;;;;;;4970568;28;46275;-64
2022/06/14 04:14:54;;;;;;;;;5.00;5.00;;;;;;;;4972734;28;45883;-64
2022/06/14 04:17:26;;;;;;;;;4.00;4.00;;;;;;;;4975327;28;45494;-65
2022/06/14 04:20:09;;;;;;;;;3.00;3.00;;;;;;;;4974383;28;45501;-64
2022/06/14 04:22:46;;;;;;;;;5.25;5.25;;;;;;;;4969251;28;47530;-63
2022/06/14 04:25:29;;;;;;;;;5.75;4.25;;;;;;;;4970073;28;46242;-65
2022/06/14 04:28:13;;;;;;;;;5.00;5.00;;;;;;;;4972113;28;45704;-64
2022/06/14 04:30:46;;;;;;;;;5.25;5.25;;;;;;;;4985709;28;46315;-64
2022/06/14 04:33:15;;;;;;;;;5.25;4.50;;;;;;;;4956052;28;46279;-63
2022/06/14 04:36:03;;;;;;;;;6.25;5.25;;;;;;;;4973886;28;45377;-65
2022/06/14 04:38:36;;;;;;;;;5.25;5.25;;;;;;;;4967093;28;45447;-65
2022/06/14 04:41:15;;;;;;;;;5.25;5.00;;;;;;;;4970601;28;45415;-66
2022/06/14 04:43:50;;;;;;;;;5.00;5.00;;;;;;;;5001988;28;48097;-67
2022/06/14 04:46:18;;;;;;;;;4.25;4.25;;;;;;;;4986556;28;45543;-65
2022/06/14 04:48:55;;;;;;;;;3.50;3.50;;;;;;;;4972458;28;45422;-64
2022/06/14 04:51:33;;;;;;;;;4.50;4.50;;;;;;;;4964233;28;45560;-65
2022/06/14 04:54:15;;;;;;;;;4.25;4.25;;;;;;;;4967076;28;46576;-65
2022/06/14 04:56:44;;;;;;;;;7.25;5.75;;;;;;;;4968540;28;45971;-65
2022/06/14 04:59:28;;;;;;;;;5.75;5.75;;;;;;;;5003075;28;45458;-63
2022/06/14 05:02:01;;;;;;;;;3.75;3.75;;;;;;;;4963848;28;45397;-63
2022/06/14 05:04:32;;;;;;;;;5.25;5.25;;;;;;;;4969525;28;47317;-64
2022/06/14 05:07:02;;;;;;;;;7.25;6.25;;;;;;;;5003228;28;45625;-64
2022/06/14 05:09:31;;;;;;;;;4.50;4.50;;;;;;;;5003182;28;45577;-66
2022/06/14 05:12:01;;;;;;;;;5.50;5.50;;;;;;;;4985488;28;45606;-65
2022/06/14 05:14:38;;;;;;;;;6.00;5.50;;;;;;;;4965684;28;46240;-66
2022/06/14 05:17:09;;;;;;;;;5.00;5.00;;;;;;;;4971920;28;45763;-66
2022/06/14 05:19:40;;;;;;;;;5.25;5.25;;;;;;;;4969551;28;45612;-65
2022/06/14 05:22:08;;;;;;;;;9.50;6.75;;;;;;;;4967557;28;45470;-67
2022/06/14 05:24:35;;;;;;;;;7.75;6.00;;;;;;;;4970112;28;45526;-65
2022/06/14 05:27:03;;;;;;;;;6.75;6.00;;;;;;;;4969542;28;45620;-66
2022/06/14 05:29:31;;;;;;;;;7.00;5.75;;;;;;;;4975570;28;45373;-66
2022/06/14 05:32:02;;;;;;;;;7.25;6.00;;;;;;;;4974024;28;45832;-65
2022/06/14 05:34:48;;;;;;;;;5.00;5.00;;;;;;;;5004333;28;48017;-65
2022/06/14 05:37:13;;;;;;;;;5.50;5.00;;;;;;;;4958660;28;45576;-65
2022/06/14 05:39:43;;;;;;;;;3.50;3.50;;;;;;;;4977398;28;45547;-66
2022/06/14 05:42:11;;;;;;;;;6.25;6.25;;;;;;;;4960103;28;45988;-67
2022/06/14 05:44:40;;;;;;;;;3.50;3.50;;;;;;;;4959774;28;47976;-66
2022/06/14 05:47:10;;;;;;;;;3.00;3.00;;;;;;;;4975657;28;45475;-65
2022/06/14 05:49:38;;;;;;;;;5.75;5.75;;;;;;;;4956365;28;45467;-65
2022/06/14 05:52:13;;;;;;;;;4.00;4.00;;;;;;;;4988568;28;45518;-66
2022/06/14 05:54:40;;;;;;;;;5.25;5.00;;;;;;;;4972196;28;47344;-65
2022/06/14 05:57:19;;;;;;;;;6.00;3.50;;;;;;;;4975866;28;45633;-65
2022/06/14 05:59:49;;;;;;;;;6.25;6.25;;;;;;;;4976291;28;45907;-65
2022/06/14 06:02:21;;;;;;;;;5.25;4.00;;;;;;;;4959860;28;46163;-64
2022/06/14 06:04:50;;;;;;;;;5.50;5.50;;;;;;;;4972183;28;46336;-64
2022/06/14 06:07:18;;;;;;;;;7.00;5.00;;;;;;;;4964575;28;45628;-67
2022/06/14 06:09:50;;;;;;;;;7.00;7.00;;;;;;;;4976282;28;45464;-66
2022/06/14 06:12:19;;;;;;;;;5.25;5.00;;;;;;;;4975496;28;45396;-67
2022/06/14 06:14:57;;;;;;;;;8.50;7.00;;;;;;;;4973267;28;46522;-66
2022/06/14 06:17:26;;;;;;;;;5.75;5.75;;;;;;;;4974044;28;45433;-64
2022/06/14 06:19:54;;;;;;;;;5.25;5.25;;;;;;;;4974594;28;45562;-66
2022/06/14 06:22:22;;;;;;;;;7.00;7.00;;;;;;;;4974813;28;45403;-64
2022/06/14 06:25:06;;;;;;;;;8.50;5.00;;;;;;;;4975077;28;46051;-65
2022/06/14 06:27:35;;;;;;;;;4.50;4.25;;;;;;;;4974478;28;45858;-65
2022/06/14 06:30:00;;;;;;;;;7.25;5.25;;;;;;;;4974585;28;45557;-65
2022/06/14 06:32:26;;;;;;;;;7.50;7.50;;;;;;;;5005910;28;45599;-65
2022/06/14 06:34:51;;;;;;;;;6.00;6.00;;;;;;;;4974463;28;45873;-64
2022/06/14 06:37:39;;;;;;;;;6.75;6.75;;;;;;;;4973136;28;47531;-66
2022/06/14 06:40:04;;;;;;;;;5.00;2.75;;;;;;;;4974966;28;45942;-64
2022/06/14 06:42:32;;;;;;;;;6.50;6.50;;;;;;;;4971140;28;45728;-65
2022/06/14 06:45:08;;;;;;;;;8.00;6.50;;;;;;;;5005403;28;47318;-64
2022/06/14 06:47:57;;;;;;;;;9.75;8.25;;;;;;;;4972523;28;46352;-65
2022/06/14 06:50:26;;;;;;;;;9.00;7.75;;;;;;;;4975993;28;45490;-66
2022/06/14 06:53:12;;;;;;;;;6.50;6.50;;;;;;;;4972479;28;45638;-66
2022/06/14 06:55:51;;;;;;;;;4.25;4.25;;;;;;;;4973923;28;45661;-66
2022/06/14 06:58:45;;;;;;;;;4.25;4.25;;;;;;;;4989033;28;45713;-66
2022/06/14 07:01:25;;;;;;;;;7.25;7.25;;;;;;;;4971077;28;45771;-64
2022/06/14 07:03:56;;;;;;;;;7.00;5.50;;;;;;;;4974053;28;45423;-65
2022/06/14 07:06:25;;;;;;;;;3.25;3.25;;;;;;;;4973400;28;46304;-65
2022/06/14 07:08:57;;;;;;;;;5.00;5.00;;;;;;;;4972262;28;45543;-66
2022/06/14 07:11:25;;;;;;;;;5.75;5.75;;;;;;;;5005004;28;45351;-65
2022/06/14 07:14:00;;;;;;;;;4.50;3.50;;;;;;;;4973553;28;45481;-66
2022/06/14 07:16:40;;;;;;;;;5.50;5.00;;;;;;;;4973375;28;46051;-65
2022/06/14 07:19:08;;;;;;;;;5.75;4.50;;;;;;;;4973855;28;45457;-66
2022/06/14 07:21:36;;;;;;;;;5.25;4.50;;;;;;;;4973532;28;45573;-64
2022/06/14 07:24:12;;;;;;;;;4.75;3.75;;;;;;;;4972047;28;45549;-65
2022/06/14 07:26:40;;;;;;;;;3.75;3.75;;;;;;;;4973230;28;45977;-64
2022/06/14 07:29:11;;;;;;;;;5.00;5.00;;;;;;;;4973334;28;45426;-66
2022/06/14 07:31:55;;;;;;;;;5.50;4.50;;;;;;;;4973274;28;45477;-64
2022/06/14 07:34:21;;;;;;;;;6.75;5.75;;;;;;;;4973681;28;45975;-65
2022/06/14 07:37:08;;;;;;;;;5.50;5.50;;;;;;;;4973740;28;45797;-65
2022/06/14 07:39:43;;;;;;;;;4.00;4.00;;;;;;;;4988327;28;46372;-65
2022/06/14 07:42:20;;;;;;;;;6.50;5.25;;;;;;;;4973317;28;45585;-65
2022/06/14 07:44:45;;;;;;;;;4.50;4.50;;;;;;;;5004613;28;45516;-65
2022/06/14 07:47:11;;;;;;;;;2.00;2.00;;;;;;;;4973225;28;46778;-66
2022/06/14 07:49:48;;;;;;;;;6.25;5.25;;;;;;;;4971963;28;45640;-65
2022/06/14 07:52:19;;;;;;;;;5.00;5.00;;;;;;;;4973778;28;45532;-65
2022/06/14 07:54:47;;;;;;;;;5.75;5.75;;;;;;;;4973716;28;45513;-64
2022/06/14 07:57:32;;;;;;;;;5.50;5.50;;;;;;;;4972235;28;46118;-66
2022/06/14 08:01:07;;;;;;;;;5.00;5.00;;;;;;;;5004601;28;45449;-65
2022/06/14 08:02:51;;;;;;;;;5.00;5.00;;;;;;;;4973281;28;47762;-65
2022/06/14 08:05:19;;;;;;;;;4.75;4.50;;;;;;;;4973445;28;45497;-64
2022/06/14 08:07:47;;;;;;;;;4.75;3.75;;;;;;;;4973342;28;46104;-65
2022/06/14 08:10:17;;;;;;;;;5.75;4.25;;;;;;;;4988719;28;45511;-66
2022/06/14 08:12:52;;;;;;;;;5.00;5.00;;;;;;;;4973930;28;45422;-63
2022/06/14 08:15:29;;;;;;;;;4.00;1.50;;;;;;;;4973257;28;45834;-66
2022/06/14 08:17:57;;;;;;;;;3.75;3.00;;;;;;;;4973066;28;45632;-65
2022/06/14 08:20:28;;;;;;;;;4.00;4.00;;;;;;;;4972904;28;45410;-66
2022/06/14 08:22:56;;;;;;;;;6.00;5.00;;;;;;;;4973097;28;45476;-66
2022/06/14 08:25:27;;;;;;;;;9.75;7.75;;;;;;;;4973131;28;45438;-65
2022/06/14 08:27:58;;;;;;;;;3.75;3.75;;;;;;;;4973444;28;45485;-65
2022/06/14 08:30:26;;;;;;;;;4.00;4.00;;;;;;;;4972829;28;45481;-65
2022/06/14 08:32:52;;;;;;;;;4.00;4.00;;;;;;;;4972924;28;45434;-65
2022/06/14 08:35:38;;;;;;;;;5.00;5.00;;;;;;;;4972830;28;45501;-64
2022/06/14 08:38:06;;;;;;;;;5.00;5.00;;;;;;;;4972978;28;46564;-65
2022/06/14 08:40:34;;;;;;;;;2.25;2.25;;;;;;;;4972700;28;45439;-66
2022/06/14 08:43:09;;;;;;;;;4.00;4.00;;;;;;;;4969889;28;45521;-65
2022/06/14 08:45:38;;;;;;;;;5.00;4.50;;;;;;;;4976522;28;45384;-66
2022/06/14 08:48:25;;;;;;;;;4.75;4.75;;;;;;;;4979058;28;45848;-65
2022/06/14 08:51:12;;;;;;;;;4.00;4.00;;;;;;;;4977822;28;45532;-66
2022/06/14 08:53:46;;;;;;;;;4.00;4.00;;;;;;;;5004233;28;45609;-67
2022/06/14 08:56:12;;;;;;;;;4.75;3.00;;;;;;;;4987671;28;45509;-66
2022/06/14 08:58:43;;;;;;;;;5.25;3.50;;;;;;;;4981692;28;46478;-66
2022/06/14 09:01:27;;;;;;;;;4.50;4.50;;;;;;;;5019863;28;46372;-66
2022/06/14 09:03:55;;;;;;;;;3.50;3.00;;;;;;;;4982780;28;45510;-66
2022/06/14 09:06:33;;;;;;;;;6.50;5.50;;;;;;;;4987412;28;45478;-66
2022/06/14 09:09:01;;;;;;;;;4.25;3.75;;;;;;;;4982218;28;45467;-66
2022/06/14 09:11:26;;;;;;;;;8.25;5.50;;;;;;;;4991001;28;45479;-65
2022/06/14 09:13:51;;;;;;;;;6.00;4.75;;;;;;;;4991256;28;45370;-66
2022/06/14 09:16:35;;;;;;;;;6.25;4.25;;;;;;;;5019453;28;45524;-67
2022/06/14 09:19:16;;;;;;;;;4.50;3.75;;;;;;;;4994847;28;45789;-66
2022/06/14 09:21:53;;;;;;;;;4.00;4.00;;;;;;;;4985786;28;46611;-65
2022/06/14 09:24:29;;;;;;;;;3.50;3.00;;;;;;;;4990892;28;45481;-64
2022/06/14 09:27:10;;;;;;;;;3.00;3.00;;;;;;;;4984710;28;45319;-67
2022/06/14 09:29:53;;;;;;;;;5.00;4.00;;;;;;;;4974728;28;45995;-66
2022/06/14 09:32:31;;;;;;;;;3.00;3.00;;;;;;;;4985435;28;45968;-66
2022/06/14 09:34:56;;;;;;;;;5.50;4.50;;;;;;;;5018703;28;45520;-66
2022/06/14 09:37:40;;;;;;;;;4.50;4.50;;;;;;;;4992817;28;46171;-66
2022/06/14 09:40:05;;;;;;;;;2.00;2.00;;;;;;;;4991004;28;45748;-65
2022/06/14 09:42:30;;;;;;;;;3.50;2.50;;;;;;;;4990100;28;45462;-66
2022/06/14 09:45:18;;;;;;;;;3.25;2.25;;;;;;;;4984648;28;45513;-65
2022/06/14 09:48:06;;;;;;;;;3.00;3.00;;;;;;;;4977424;28;45388;-65
2022/06/14 09:50:34;;;;;;;;;3.25;3.25;;;;;;;;4987519;28;46850;-66
2022/06/14 09:53:18;;;;;;;;;3.00;3.00;;;;;;;;5019105;28;45644;-66
2022/06/14 09:55:46;;;;;;;;;4.00;4.00;;;;;;;;4963837;28;46784;-65
2022/06/14 09:58:18;;;;;;;;;5.50;4.50;;;;;;;;4988488;28;45395;-66
2022/06/14 10:00:48;;;;;;;;;4.00;4.00;;;;;;;;4992017;28;45936;-66
2022/06/14 10:03:32;;;;;;;;;2.75;1.00;;;;;;;;4983714;28;45739;-66
2022/06/14 10:06:05;;;;;;;;;4.25;4.00;;;;;;;;4986026;28;45455;-66
2022/06/14 10:08:33;;;;;;;;;3.25;3.25;;;;;;;;4987558;28;45333;-65
2022/06/14 10:11:17;;;;;;;;;3.00;3.00;;;;;;;;5018475;28;47192;-66
2022/06/14 10:13:51;;;;;;;;;4.25;4.25;;;;;;;;4963350;28;45414;-66
2022/06/14 10:16:23;;;;;;;;;3.75;3.75;;;;;;;;4987115;28;45399;-65
2022/06/14 10:18:51;;;;;;;;;4.50;3.50;;;;;;;;4992729;28;45323;-66
2022/06/14 10:21:19;;;;;;;;;3.50;3.50;;;;;;;;4982510;28;45589;-66
2022/06/14 10:23:44;;;;;;;;;3.25;3.25;;;;;;;;4990014;28;45376;-64
2022/06/14 10:29:18;;;;;;;;;4.25;3.00;;;;;;;;4986773;28;45693;-65
2022/06/14 10:32:02;;;;;;;;;5.00;5.00;;;;;;;;5021276;28;47792;-67
2022/06/14 10:34:53;;;;;;;;;5.25;5.00;;;;;;;;4984800;28;45417;-66
2022/06/14 10:37:18;;;;;;;;;4.50;4.50;;;;;;;;4991572;28;45379;-66
2022/06/14 10:40:02;;;;;;;;;4.25;4.25;;;;;;;;4978616;28;45738;-67
2022/06/14 10:42:27;;;;;;;;;4.25;4.25;;;;;;;;4988056;28;45481;-67
2022/06/14 10:44:58;;;;;;;;;5.25;4.00;;;;;;;;4983893;28;45561;-67
2022/06/14 10:47:27;;;;;;;;;6.00;4.00;;;;;;;;5002224;28;45634;-67
2022/06/14 10:49:55;;;;;;;;;3.50;3.00;;;;;;;;4989651;28;45617;-66
2022/06/14 10:52:52;;;;;;;;;4.25;4.25;;;;;;;;4974800;28;46293;-67
2022/06/14 10:55:44;;;;;;;;;6.00;4.00;;;;;;;;4935485;28;46545;-66
2022/06/14 10:58:28;;;;;;;;;3.25;3.25;;;;;;;;4954893;28;45580;-67
2022/06/14 11:01:05;;;;;;;;;3.75;3.00;;;;;;;;4950570;28;45638;-69
2022/06/14 11:03:48;;;;;;;;;4.00;2.75;;;;;;;;4971467;28;47645;-69
2022/06/14 11:06:33;;;;;;;;;4.00;4.00;;;;;;;;4953480;28;45600;-67
2022/06/14 11:09:11;;;;;;;;;4.25;3.50;;;;;;;;4932202;28;45509;-67
2022/06/14 11:11:48;;;;;;;;;4.50;3.25;;;;;;;;4958681;28;45495;-66
2022/06/14 11:14:19;;;;;;;;;4.00;4.00;;;;;;;;4948392;28;45765;-68
2022/06/14 11:16:46;;;;;;;;;5.00;5.00;;;;;;;;4944145;28;46153;-66
2022/06/14 11:19:30;;;;;;;;;5.25;4.25;;;;;;;;4954557;28;45498;-67
2022/06/14 11:22:01;;;;;;;;;5.50;4.50;;;;;;;;4958087;28;45500;-67
2022/06/14 11:24:47;;;;;;;;;7.25;5.50;;;;;;;;4953702;28;46490;-67
2022/06/14 11:27:20;;;;;;;;;2.00;2.00;;;;;;;;4949058;28;45575;-68
2022/06/14 11:30:06;;;;;;;;;4.25;4.25;;;;;;;;4957084;28;45900;-67
2022/06/14 11:32:54;;;;;;;;;5.75;5.75;;;;;;;;4978419;28;45505;-67
2022/06/14 11:35:23;;;;;;;;;7.00;6.00;;;;;;;;4986269;28;46649;-67
2022/06/14 11:37:51;;;;;;;;;5.75;5.75;;;;;;;;5020096;28;45427;-68
2022/06/14 11:40:23;;;;;;;;;4.50;4.25;;;;;;;;4985486;28;45542;-67
2022/06/14 11:42:51;;;;;;;;;4.25;4.25;;;;;;;;5022336;28;45417;-67
2022/06/14 11:45:35;;;;;;;;;5.00;5.00;;;;;;;;4981598;28;46035;-67
2022/06/14 11:48:09;;;;;;;;;6.25;4.75;;;;;;;;4983609;28;45857;-67
2022/06/14 11:50:43;;;;;;;;;4.00;2.75;;;;;;;;4985132;28;45490;-65
2022/06/14 11:53:08;;;;;;;;;4.00;4.00;;;;;;;;4986288;28;45413;-67
2022/06/14 11:55:37;;;;;;;;;7.00;6.00;;;;;;;;4989033;28;45676;-66
2022/06/14 11:58:11;;;;;;;;;4.25;4.00;;;;;;;;4986119;28;45438;-67
2022/06/14 12:00:54;;;;;;;;;6.75;5.00;;;;;;;;5020355;28;45517;-67
2022/06/14 12:03:32;;;;;;;;;4.50;4.00;;;;;;;;4981802;28;46636;-67
2022/06/14 12:06:00;;;;;;;;;2.75;2.25;;;;;;;;4987791;28;46496;-68
2022/06/14 12:08:48;;;;;;;;;4.50;4.00;;;;;;;;4985833;28;45585;-67
2022/06/14 12:11:20;;;;;;;;;4.00;3.25;;;;;;;;4986098;28;45374;-67
2022/06/14 12:13:51;;;;;;;;;1.25;1.25;;;;;;;;4988044;28;45409;-66
2022/06/14 12:16:26;;;;;;;;;4.50;4.50;;;;;;;;5016722;28;47748;-67
2022/06/14 12:19:03;;;;;;;;;5.00;5.00;;;;;;;;4988840;28;45473;-66
2022/06/14 12:21:31;;;;;;;;;5.50;5.50;;;;;;;;4978740;28;45369;-67
2022/06/14 12:24:01;;;;;;;;;4.25;4.25;;;;;;;;4980506;28;45642;-67
2022/06/14 12:26:39;;;;;;;;;5.00;5.00;;;;;;;;4970732;28;48541;-66
2022/06/14 12:29:04;;;;;;;;;5.00;4.00;;;;;;;;4983085;28;46205;-66
2022/06/14 12:31:46;;;;;;;;;5.75;5.00;;;;;;;;4989605;28;45419;-66
2022/06/14 12:34:29;;;;;;;;;5.50;4.25;;;;;;;;4990893;28;45397;-67
2022/06/14 12:37:01;;;;;;;;;5.00;4.00;;;;;;;;4953674;28;48668;-67
2022/06/14 12:39:31;;;;;;;;;4.00;4.00;;;;;;;;4981301;28;46144;-66
2022/06/14 12:42:02;;;;;;;;;5.00;5.00;;;;;;;;4959328;28;46230;-68
2022/06/14 12:44:39;;;;;;;;;4.00;4.00;;;;;;;;4950842;28;45499;-68
2022/06/14 12:47:07;;;;;;;;;6.00;5.00;;;;;;;;4959915;28;45747;-68
2022/06/14 12:49:38;;;;;;;;;3.75;3.75;;;;;;;;4954234;28;45546;-68
2022/06/14 12:52:10;;;;;;;;;2.75;2.75;;;;;;;;4961964;28;45388;-68
2022/06/14 12:54:44;;;;;;;;;5.00;5.00;;;;;;;;4951689;28;45377;-67
2022/06/14 12:57:36;;;;;;;;;5.00;5.00;;;;;;;;4954977;28;46516;-68
2022/06/14 13:00:21;;;;;;;;;3.00;3.00;;;;;;;;4992201;28;45524;-68
2022/06/14 13:02:58;;;;;;;;;4.50;3.50;;;;;;;;4967616;28;45504;-67
2022/06/14 13:05:29;;;;;;;;;5.25;5.00;;;;;;;;4978742;28;45511;-68
2022/06/14 13:08:13;;;;;;;;;4.75;4.75;;;;;;;;4987516;28;46488;-69
2022/06/14 13:10:38;;;;;;;;;5.25;4.00;;;;;;;;4989570;28;45448;-68
2022/06/14 13:13:19;;;;;;;;;5.00;5.00;;;;;;;;4991708;28;45436;-67
2022/06/14 13:16:03;;;;;;;;;6.00;4.25;;;;;;;;4979128;28;45726;-67
2022/06/14 13:18:28;;;;;;;;;5.00;5.00;;;;;;;;4974510;28;47527;-69
2022/06/14 13:20:57;;;;;;;;;4.00;4.00;;;;;;;;4967815;28;46131;-68
2022/06/14 13:23:38;;;;;;;;;4.25;4.00;;;;;;;;4994853;28;45738;-67
2022/06/14 13:26:09;;;;;;;;;4.25;4.25;;;;;;;;4985052;28;45904;-68
2022/06/14 13:28:49;;;;;;;;;5.00;5.00;;;;;;;;4993350;28;46654;-68
2022/06/14 13:31:20;;;;;;;;;4.00;4.00;;;;;;;;4988828;28;45484;-68
2022/06/14 13:34:04;;;;;;;;;6.00;4.00;;;;;;;;4998590;28;45576;-68
2022/06/14 13:36:45;;;;;;;;;5.25;4.50;;;;;;;;4986172;28;45510;-68
2022/06/14 13:39:15;;;;;;;;;6.25;5.00;;;;;;;;4958842;28;46478;-68
2022/06/14 13:42:00;;;;;;;;;3.25;3.25;;;;;;;;4963575;28;46041;-67
2022/06/14 13:44:29;;;;;;;;;3.75;3.75;;;;;;;;4963237;28;45466;-68
2022/06/14 13:47:00;;;;;;;;;7.50;5.25;;;;;;;;4961352;28;45672;-67
2022/06/14 13:49:25;;;;;;;;;4.25;4.25;;;;;;;;4964321;28;46540;-68
2022/06/14 13:52:03;;;;;;;;;6.00;5.75;;;;;;;;4985846;28;45413;-69
2022/06/14 13:54:37;;;;;;;;;7.25;4.25;;;;;;;;4964296;28;45538;-68
2022/06/14 13:57:08;;;;;;;;;4.75;4.75;;;;;;;;4994863;28;45480;-68
2022/06/14 13:59:36;;;;;;;;;5.75;4.25;;;;;;;;4968332;28;46567;-68
2022/06/14 14:02:37;;;;;;;;;4.00;4.00;;;;;;;;4968661;28;45468;-68
2022/06/14 14:05:15;;;;;;;;;4.75;4.75;;;;;;;;4950065;28;45665;-68
2022/06/14 14:08:16;;;;;;;;;4.00;4.00;;;;;;;;4948018;28;45819;-67
2022/06/14 14:10:47;;;;;;;;;6.50;6.50;;;;;;;;4890286;28;48463;-67
2022/06/14 14:13:15;;;;;;;;;4.25;4.25;;;;;;;;4908315;28;45674;-68
2022/06/14 14:15:49;;;;;;;;;3.00;3.00;;;;;;;;4898281;28;45545;-67
2022/06/14 14:18:20;;;;;;;;;5.00;5.00;;;;;;;;4887505;28;45695;-67
2022/06/14 14:21:04;;;;;;;;;3.00;3.00;;;;;;;;4899967;28;48720;-68
2022/06/14 14:23:36;;;;;;;;;6.50;5.75;;;;;;;;4887247;28;45544;-68
2022/06/14 14:26:05;;;;;;;;;4.50;4.50;;;;;;;;4904860;28;46183;-68
2022/06/14 14:28:45;;;;;;;;;4.00;3.00;;;;;;;;4886652;28;45710;-67
2022/06/14 14:31:16;;;;;;;;;3.75;3.25;;;;;;;;4907926;28;46227;-66
2022/06/14 14:34:01;;;;;;;;;4.50;4.50;;;;;;;;4897994;28;45505;-68
2022/06/14 14:36:43;;;;;;;;;4.75;4.25;;;;;;;;4903489;28;45476;-68
2022/06/14 14:39:26;;;;;;;;;4.00;4.00;;;;;;;;4908334;28;45730;-67
2022/06/14 14:42:02;;;;;;;;;4.00;4.00;;;;;;;;4927136;28;45881;-67
2022/06/14 14:44:31;;;;;;;;;6.00;5.00;;;;;;;;4929124;28;45589;-67
2022/06/14 14:47:14;;;;;;;;;3.75;3.75;;;;;;;;4965008;28;45585;-66
2022/06/14 14:49:54;;;;;;;;;5.75;4.50;;;;;;;;4968772;28;45557;-68
2022/06/14 14:52:28;;;;;;;;;4.00;4.00;;;;;;;;4966384;28;45742;-68
2022/06/14 14:55:06;;;;;;;;;6.00;4.75;;;;;;;;4968629;28;46453;-68
2022/06/14 14:57:42;;;;;;;;;5.00;4.50;;;;;;;;4960212;28;45576;-68
2022/06/14 15:00:19;;;;;;;;;4.75;4.75;;;;;;;;4952486;28;45625;-68
2022/06/14 15:05:54;;;;;;;;;6.25;6.00;;;;;;;;4954587;28;45444;-67
2022/06/14 15:08:38;;;;;;;;;4.25;4.25;;;;;;;;4957722;28;45607;-67
2022/06/14 15:11:06;;;;;;;;;4.00;4.00;;;;;;;;4991986;28;47465;-67
2022/06/14 15:13:31;;;;;;;;;4.00;4.00;;;;;;;;4957804;28;45529;-67
2022/06/14 15:15:57;;;;;;;;;6.00;5.00;;;;;;;;4959807;28;45696;-67
2022/06/14 15:21:16;;;;;;;;;7.25;4.75;;;;;;;;4965935;28;45727;-68
2022/06/14 15:23:46;;;;;;;;;8.75;6.75;;;;;;;;4954838;28;46055;-67
2022/06/14 15:26:22;;;;;;;;;5.25;5.25;;;;;;;;4993507;28;45567;-68
2022/06/14 15:28:49;;;;;;;;;4.00;4.00;;;;;;;;4953939;28;45537;-66
2022/06/14 15:31:40;;;;;;;;;5.00;5.00;;;;;;;;4954568;28;45574;-66
2022/06/14 15:34:13;;;;;;;;;5.75;5.75;;;;;;;;4968616;28;47672;-67
2022/06/14 15:36:41;;;;;;;;;6.75;5.25;;;;;;;;4986053;28;45401;-66